Portada
METAR-TAF:

METAR-TAF

Aeropuertos :

Aeropuerto de Santiago de Compostela

Santiago de Compostela, España

latitud: 42-54N, longitud: 008-26W, altitud: 370 m

Observación

El informe se hizo hace 10 minutos, a las 18:30 UTC
Viento 6 kt del norte-noreste, variando entre norte-noroeste y este-noreste
Temperatura 26°C
Humedad 61%
Presión 1018 hPa
Visibilidad 10 km o más
sin nubes por debajo de 1500 m y sin presencia de cumulonimbus.

METAR: LEST 201830Z 02006KT 330V060 CAVOK 26/18 Q1018 NOSIG

Hora: 20:40 (18:40 UTC)

Pronóstico

El informe se hizo hace 1 hora y 40 minutos, a las 17:00 UTC
Pronóstico válido del 20 a las 18 UTC al 21 a las 18 UTC
Viento 9 kt del noreste
Visibilidad 10 km o más
sin nubes por debajo de 1500 m y sin presencia de cumulonimbus.

TAF: LEST 201700Z 2018/2118 05009KT CAVOK TX33/2115Z TN16/2106Z

Observaciones y pronósticos meteorológicos de más de 4000 aeropuertos (mensajes METAR y TAF).

Los puntos amarillos y rojos representan las estaciones disponibles.

Ponga el ratón en el punto deseado para ver el nombre de la estación.

Haga clic para ver las observaciones y los pronósticos meteorológicos.

Para cambiar el mapa : haga clic en los botones verdes con una cruz de color negro para hacer un zoom, en el botón verde con un guión para alejar o en las flechas verdes para mapas adyacentes.


METAR-TAF: